Time;durP1;ratioP1;P1;durP2;ratioP2;P2;SDS_P1;SDS_P2;PMS_P1;PMS_P2;Temp;Humidity;BMP_temperature;BMP_pressure;BME280_temperature;BME280_humidity;BME280_pressure;Samples;Min_cycle;Max_cycle;Signal;HPM_P1;HPM_P2
2022/01/13 00:01:18;;;;;;;2.95;2.15;;;10.90;64.30;;;;;;6158713;23;20048;-76
2022/01/13 00:03:45;;;;;;;3.72;2.63;;;10.90;64.30;;;;;;6158174;23;20029;-77
2022/01/13 00:06:10;;;;;;;3.25;2.08;;;10.90;64.30;;;;;;6158635;23;20345;-75
2022/01/13 00:08:36;;;;;;;2.40;1.85;;;10.90;64.30;;;;;;6158629;23;20017;-77
2022/01/13 00:11:02;;;;;;;3.22;1.90;;;10.90;64.30;;;;;;6158281;23;20033;-75
2022/01/13 00:13:35;;;;;;;4.70;2.22;;;10.90;64.30;;;;;;6157926;23;20017;-75
2022/01/13 00:19:20;;;;;;;3.97;2.10;;;10.90;64.30;;;;;;6158053;23;20025;-76
2022/01/13 00:21:35;;;;;;;2.85;1.90;;;10.90;64.30;;;;;;6140911;23;20136;-75
2022/01/13 00:24:03;;;;;;;3.45;2.33;;;10.90;64.30;;;;;;6156829;23;20036;-75
2022/01/13 00:26:31;;;;;;;2.80;2.03;;;10.90;64.30;;;;;;6156435;23;20013;-76
2022/01/13 00:29:01;;;;;;;3.20;2.10;;;10.90;64.30;;;;;;6158078;23;20445;-76
2022/01/13 00:31:31;;;;;;;3.40;2.35;;;10.90;64.30;;;;;;6157206;23;20427;-76
2022/01/13 00:34:03;;;;;;;3.92;2.10;;;10.90;64.30;;;;;;6156395;23;20013;-74
2022/01/13 00:36:32;;;;;;;2.90;2.13;;;10.90;64.30;;;;;;6156391;23;20018;-77
2022/01/13 00:38:58;;;;;;;4.20;2.03;;;10.90;64.20;;;;;;6156708;23;20025;-77
2022/01/13 00:41:29;;;;;;;3.08;2.33;;;10.90;64.30;;;;;;6157412;23;20068;-76
2022/01/13 00:44:00;;;;;;;3.35;2.13;;;10.90;64.20;;;;;;6131977;23;20064;-77
2022/01/13 00:46:31;;;;;;;2.70;1.95;;;10.90;64.20;;;;;;6156738;23;20026;-77
2022/01/13 00:48:58;;;;;;;3.83;2.28;;;10.90;64.30;;;;;;6157962;23;20025;-76
2022/01/13 00:51:24;;;;;;;3.55;2.30;;;10.90;64.30;;;;;;6157660;23;20021;-75
2022/01/13 00:53:52;;;;;;;3.90;2.35;;;10.90;64.30;;;;;;6157789;23;20097;-75
2022/01/13 00:56:18;;;;;;;3.20;1.98;;;10.90;64.30;;;;;;6157938;23;20037;-76
2022/01/13 00:58:44;;;;;;;3.50;2.15;;;10.90;64.30;;;;;;6157046;23;20017;-77
2022/01/13 01:01:10;;;;;;;3.45;2.17;;;10.90;64.30;;;;;;6157112;23;20088;-77
2022/01/13 01:03:37;;;;;;;3.15;2.30;;;10.90;64.30;;;;;;6157073;23;20064;-77
2022/01/13 01:06:04;;;;;;;3.88;2.35;;;10.90;64.30;;;;;;6160337;23;20024;-75
2022/01/13 01:08:33;;;;;;;3.60;2.30;;;10.90;64.30;;;;;;6158312;23;20025;-76
2022/01/13 01:11:02;;;;;;;3.47;2.22;;;10.90;64.30;;;;;;6158733;23;20028;-75
2022/01/13 01:13:30;;;;;;;3.53;2.50;;;10.90;64.30;;;;;;6160432;23;20029;-76
2022/01/13 01:15:59;;;;;;;4.85;2.33;;;10.90;64.30;;;;;;6158577;23;20378;-76
2022/01/13 01:18:37;;;;;;;3.65;2.28;;;10.90;64.20;;;;;;6160164;23;20383;-76
2022/01/13 01:23:45;;;;;;;3.58;1.98;;;10.90;64.20;;;;;;6158630;23;20435;-77
2022/01/13 01:28:50;;;;;;;4.75;2.70;;;10.90;64.20;;;;;;6159244;23;20040;-74
2022/01/13 01:31:18;;;;;;;4.72;2.63;;;10.90;64.80;;;;;;6159398;23;20101;-76
2022/01/13 01:33:54;;;;;;;4.95;2.53;;;10.90;64.20;;;;;;6159472;23;20415;-76
2022/01/13 01:36:19;;;;;;;4.43;2.30;;;10.90;64.20;;;;;;6159815;23;20021;-75
2022/01/13 01:38:48;;;;;;;4.45;2.13;;;10.90;64.20;;;;;;6159450;23;20063;-75
2022/01/13 01:41:16;;;;;;;4.45;2.22;;;10.90;64.20;;;;;;6157840;23;20017;-77
2022/01/13 01:43:42;;;;;;;3.53;2.45;;;10.90;64.20;;;;;;6159438;23;20028;-75
2022/01/13 01:46:07;;;;;;;4.70;2.47;;;10.90;64.30;;;;;;6159615;23;20025;-75
2022/01/13 01:48:35;;;;;;;3.22;2.10;;;10.90;64.30;;;;;;6158108;23;20092;-77
2022/01/13 01:51:04;;;;;;;5.20;2.95;;;10.90;64.30;;;;;;6159445;23;20096;-75
2022/01/13 01:53:30;;;;;;;4.70;2.33;;;10.90;64.30;;;;;;6158364;23;20425;-75
2022/01/13 01:55:56;;;;;;;4.38;2.33;;;10.90;64.20;;;;;;6160094;23;20285;-76
2022/01/13 01:58:25;;;;;;;4.47;2.80;;;10.90;64.30;;;;;;6157808;23;20017;-75
2022/01/13 02:00:51;;;;;;;4.50;2.72;;;10.90;64.20;;;;;;6158632;23;20355;-76
2022/01/13 02:03:17;;;;;;;4.45;2.90;;;10.90;64.30;;;;;;6159399;23;20104;-77
2022/01/13 02:05:43;;;;;;;4.10;2.58;;;10.90;64.30;;;;;;6159585;23;20025;-75
2022/01/13 02:08:09;;;;;;;4.40;2.55;;;10.90;64.30;;;;;;6134412;23;20021;-77
2022/01/13 02:10:35;;;;;;;3.08;1.92;;;10.90;64.30;;;;;;6158358;23;20280;-75
2022/01/13 02:13:08;;;;;;;3.45;2.25;;;10.90;64.30;;;;;;6157576;23;20021;-76
2022/01/13 02:15:37;;;;;;;3.97;2.25;;;10.90;64.30;;;;;;6159054;23;20025;-76
2022/01/13 02:18:05;;;;;;;3.65;2.08;;;10.90;64.30;;;;;;6157590;23;20017;-77
2022/01/13 02:20:53;;;;;;;4.88;2.47;;;10.90;64.30;;;;;;6159199;23;20378;-75
2022/01/13 02:23:51;;;;;;;3.53;2.53;;;10.90;64.20;;;;;;6157574;23;20040;-77
2022/01/13 02:26:17;;;;;;;3.78;2.60;;;10.90;64.20;;;;;;6094551;23;20026;-75
2022/01/13 02:28:44;;;;;;;5.03;2.58;;;10.90;64.30;;;;;;6158980;23;20021;-77
2022/01/13 02:31:11;;;;;;;4.03;2.40;;;10.90;64.20;;;;;;6157468;23;20018;-75
2022/01/13 02:33:37;;;;;;;3.25;2.28;;;10.90;64.20;;;;;;6158966;23;20064;-76
2022/01/13 02:36:07;;;;;;;3.78;1.90;;;10.90;64.20;;;;;;6159495;23;20096;-76
2022/01/13 02:38:34;;;;;;;4.10;2.20;;;10.90;64.20;;;;;;6158179;23;20025;-77
2022/01/13 02:41:00;;;;;;;3.60;2.08;;;10.90;64.20;;;;;;6157750;23;20080;-76
2022/01/13 02:43:29;;;;;;;3.80;2.47;;;10.90;64.20;;;;;;6158836;23;20049;-78
2022/01/13 02:48:39;;;;;;;;;;;10.90;64.20;;;;;;6159009;23;20412;-77
2022/01/13 02:51:05;;;;;;;3.97;2.30;;;10.90;64.20;;;;;;6133605;23;19916;-76
2022/01/13 02:53:30;;;;;;;3.20;2.13;;;10.90;64.30;;;;;;6132520;23;20021;-77
2022/01/13 02:56:01;;;;;;;2.17;1.92;;;10.90;64.30;;;;;;6158694;23;20021;-74
2022/01/13 02:58:27;;;;;;;3.50;2.30;;;10.90;64.30;;;;;;6157565;23;20064;-76
2022/01/13 03:00:53;;;;;;;4.00;2.17;;;10.90;64.30;;;;;;6158573;23;20501;-77
2022/01/13 03:03:20;;;;;;;2.60;1.75;;;10.90;64.30;;;;;;6158976;23;20017;-77
2022/01/13 03:05:46;;;;;;;3.42;2.13;;;10.90;64.30;;;;;;6157832;23;20096;-75
2022/01/13 03:08:11;;;;;;;4.20;2.60;;;10.90;64.30;;;;;;6158585;23;20449;-77
2022/01/13 03:10:37;;;;;;;3.47;2.38;;;10.90;64.30;;;;;;6157152;23;20032;-75
2022/01/13 03:13:04;;;;;;;2.83;2.03;;;10.90;64.30;;;;;;6158518;23;20065;-75
2022/01/13 03:15:29;;;;;;;3.08;2.10;;;10.90;64.30;;;;;;6157425;23;20032;-75
2022/01/13 03:17:55;;;;;;;2.88;2.30;;;10.90;64.30;;;;;;6157178;23;20060;-77
2022/01/13 03:20:21;;;;;;;3.17;2.15;;;10.90;64.30;;;;;;6157648;23;20026;-77
2022/01/13 03:22:46;;;;;;;4.07;2.35;;;10.90;64.30;;;;;;6157662;23;20044;-77
2022/01/13 03:25:14;;;;;;;3.72;2.47;;;10.90;64.30;;;;;;6158483;23;20021;-76
2022/01/13 03:27:41;;;;;;;2.53;1.67;;;10.90;64.30;;;;;;6157845;23;20017;-77
2022/01/13 03:30:09;;;;;;;2.67;1.85;;;10.90;64.30;;;;;;6157307;23;20017;-76
2022/01/13 03:32:36;;;;;;;3.22;2.28;;;10.90;64.30;;;;;;6157379;23;20068;-74
2022/01/13 03:35:04;;;;;;;3.80;2.63;;;10.90;64.30;;;;;;6156876;23;20045;-74
2022/01/13 03:37:30;;;;;;;3.38;2.30;;;10.90;64.30;;;;;;6157522;23;20048;-75
2022/01/13 03:39:57;;;;;;;3.42;2.08;;;10.90;64.30;;;;;;6157078;23;20155;-76
2022/01/13 03:42:23;;;;;;;3.00;2.17;;;10.90;64.30;;;;;;6157174;23;20065;-77
2022/01/13 03:44:49;;;;;;;3.72;2.40;;;10.90;64.30;;;;;;6156761;23;20017;-75
2022/01/13 03:47:16;;;;;;;3.67;2.15;;;10.90;64.30;;;;;;6158135;23;20099;-75
2022/01/13 03:49:42;;;;;;;3.75;2.13;;;10.90;64.30;;;;;;6156781;23;20021;-77
2022/01/13 03:52:22;;;;;;;3.75;1.83;;;10.90;64.30;;;;;;6158475;23;20029;-76
2022/01/13 03:55:15;;;;;;;4.20;2.28;;;10.90;64.30;;;;;;6158132;23;20025;-76
2022/01/13 03:57:56;;;;;;;3.53;1.77;;;10.90;64.30;;;;;;6158523;23;20022;-76
2022/01/13 04:00:42;;;;;;;3.88;2.28;;;10.90;64.30;;;;;;6158835;23;20021;-77
2022/01/13 04:03:09;;;;;;;3.38;2.20;;;10.90;64.30;;;;;;6157315;23;20441;-75
2022/01/13 04:06:00;;;;;;;4.35;2.67;;;10.90;64.30;;;;;;6157022;23;20319;-77
2022/01/13 04:08:25;;;;;;;3.92;2.05;;;10.90;64.30;;;;;;6157295;23;20017;-77
2022/01/13 04:11:12;;;;;;;3.38;2.10;;;10.90;64.30;;;;;;6157876;23;20071;-76
2022/01/13 04:16:21;;;;;;;2.42;2.03;;;10.90;64.30;;;;;;6158656;23;20416;-77
2022/01/13 04:18:48;;;;;;;2.75;2.00;;;10.90;64.30;;;;;;6158995;23;20299;-76
2022/01/13 04:21:17;;;;;;;3.03;2.20;;;10.90;64.30;;;;;;6157626;23;20438;-76
2022/01/13 04:23:43;;;;;;;2.97;2.10;;;10.90;64.30;;;;;;6158006;23;20348;-75
2022/01/13 04:26:10;;;;;;;3.95;2.00;;;10.90;64.30;;;;;;6157706;23;20135;-76
2022/01/13 04:28:36;;;;;;;3.17;2.28;;;10.90;64.30;;;;;;6157875;23;20028;-76
2022/01/13 04:31:03;;;;;;;3.67;2.03;;;10.90;64.30;;;;;;6157533;23;20482;-77
2022/01/13 04:33:30;;;;;;;3.97;2.13;;;10.90;64.30;;;;;;6158298;23;20024;-76
2022/01/13 04:35:56;;;;;;;3.80;2.22;;;10.90;64.30;;;;;;6156924;23;20028;-75
2022/01/13 04:38:22;;;;;;;3.35;2.10;;;10.80;64.20;;;;;;6157281;23;20025;-76
2022/01/13 04:40:54;;;;;;;2.70;2.10;;;10.90;64.30;;;;;;6159797;23;20022;-76
2022/01/13 04:43:20;;;;;;;3.33;2.00;;;10.80;64.20;;;;;;6161952;23;20025;-76
2022/01/13 04:45:47;;;;;;;3.65;2.20;;;10.90;64.30;;;;;;6161580;23;20092;-76
2022/01/13 04:48:14;;;;;;;3.35;1.85;;;10.80;64.20;;;;;;6135621;23;20025;-76
2022/01/13 04:50:40;;;;;;;3.55;2.10;;;10.90;64.30;;;;;;6160247;23;20018;-75
2022/01/13 04:53:07;;;;;;;3.45;2.15;;;10.90;64.30;;;;;;6160936;23;20303;-76
2022/01/13 04:55:35;;;;;;;3.72;2.25;;;10.90;64.30;;;;;;6161046;23;20022;-75
2022/01/13 04:58:01;;;;;;;2.25;1.58;;;10.80;64.20;;;;;;6161621;23;20025;-76
2022/01/13 05:00:29;;;;;;;2.35;2.00;;;10.90;64.30;;;;;;6159683;23;20033;-76
2022/01/13 05:02:55;;;;;;;2.67;2.20;;;10.90;64.30;;;;;;6160279;23;20061;-76
2022/01/13 05:05:21;;;;;;;2.58;2.13;;;10.90;64.30;;;;;;6159934;23;20036;-75
2022/01/13 05:07:47;;;;;;;3.80;2.30;;;10.90;64.20;;;;;;6159960;23;20442;-77
2022/01/13 05:10:14;;;;;;;3.45;2.63;;;10.90;64.20;;;;;;6161013;23;20021;-77
2022/01/13 05:12:47;;;;;;;2.42;1.95;;;10.90;64.20;;;;;;6160453;23;20022;-75
2022/01/13 05:15:20;;;;;;;3.78;2.25;;;10.80;64.10;;;;;;6161823;23;20021;-76
2022/01/13 05:18:03;;;;;;;4.22;2.30;;;10.90;64.20;;;;;;6161812;23;20080;-75
2022/01/13 05:20:39;;;;;;;2.83;1.98;;;10.80;64.20;;;;;;6161829;23;20351;-76
2022/01/13 05:23:06;;;;;;;5.25;2.20;;;10.80;64.20;;;;;;6135545;23;20029;-75
2022/01/13 05:25:32;;;;;;;3.30;2.40;;;10.90;64.20;;;;;;6161452;23;20318;-75
2022/01/13 05:27:58;;;;;;;2.80;2.03;;;10.90;64.20;;;;;;6160870;23;20032;-77
2022/01/13 05:30:24;;;;;;;2.92;2.05;;;10.90;64.20;;;;;;6160419;23;20028;-75
2022/01/13 05:32:49;;;;;;;3.95;2.03;;;10.90;64.20;;;;;;6160748;23;20017;-76
2022/01/13 05:35:15;;;;;;;3.45;2.40;;;10.80;64.20;;;;;;6160188;23;20067;-77
2022/01/13 05:37:42;;;;;;;3.40;2.15;;;10.90;64.30;;;;;;6160946;23;20028;-75
2022/01/13 05:40:10;;;;;;;3.75;2.58;;;10.90;64.30;;;;;;6160987;23;20028;-75
2022/01/13 05:42:36;;;;;;;4.53;2.10;;;10.90;64.30;;;;;;6160903;23;20128;-77
2022/01/13 05:45:03;;;;;;;3.55;2.53;;;10.90;64.30;;;;;;6161808;23;20074;-75
2022/01/13 05:47:28;;;;;;;3.92;2.78;;;10.90;64.30;;;;;;6161797;23;20323;-75
2022/01/13 05:49:54;;;;;;;3.70;2.42;;;10.90;64.30;;;;;;6158706;23;20017;-75
2022/01/13 05:52:20;;;;;;;3.08;1.90;;;10.90;64.30;;;;;;6158558;23;20137;-74
2022/01/13 05:54:45;;;;;;;3.65;2.35;;;10.90;64.30;;;;;;6157936;23;20446;-76
2022/01/13 05:57:11;;;;;;;4.78;2.33;;;10.90;64.30;;;;;;6159504;23;20021;-77
2022/01/13 05:59:37;;;;;;;4.43;2.60;;;10.90;64.40;;;;;;6159388;23;20087;-77
2022/01/13 06:02:03;;;;;;;4.93;2.60;;;10.90;64.30;;;;;;6158318;23;20032;-77
2022/01/13 06:04:29;;;;;;;4.93;2.22;;;10.90;64.30;;;;;;6158881;23;20031;-76
2022/01/13 06:06:55;;;;;;;3.17;2.03;;;10.90;64.30;;;;;;6159704;23;20053;-76
2022/01/13 06:09:21;;;;;;;4.82;2.58;;;10.90;64.40;;;;;;6157680;23;20021;-74
2022/01/13 06:11:58;;;;;;;4.32;2.40;;;10.90;64.40;;;;;;6159149;23;20021;-76
2022/01/13 06:14:23;;;;;;;4.28;2.53;;;10.90;64.40;;;;;;6159055;23;20017;-75
2022/01/13 06:16:49;;;;;;;4.47;2.85;;;10.90;64.40;;;;;;6157894;23;20404;-76
2022/01/13 06:19:15;;;;;;;3.90;2.33;;;10.90;64.40;;;;;;6133716;23;20022;-75
2022/01/13 06:21:41;;;;;;;3.25;2.33;;;10.90;64.40;;;;;;6157651;23;20331;-78
2022/01/13 06:24:07;;;;;;;5.30;2.28;;;10.90;64.40;;;;;;6159489;23;20028;-77
2022/01/13 06:26:32;;;;;;;4.07;2.85;;;10.90;64.40;;;;;;6158098;23;20022;-76
2022/01/13 06:28:58;;;;;;;6.07;3.13;;;10.90;64.40;;;;;;6158811;23;20021;-77
2022/01/13 06:31:23;;;;;;;6.57;2.75;;;10.90;64.40;;;;;;6157727;23;20088;-75
2022/01/13 06:33:49;;;;;;;4.07;2.97;;;10.90;64.40;;;;;;6158443;23;20022;-76
2022/01/13 06:36:15;;;;;;;3.47;2.45;;;10.90;64.50;;;;;;6159289;23;20024;-76
2022/01/13 06:38:42;;;;;;;3.45;2.42;;;10.90;64.50;;;;;;6158475;23;20494;-74
2022/01/13 06:41:08;;;;;;;3.95;2.15;;;10.80;64.40;;;;;;6158003;23;20072;-74
2022/01/13 06:43:34;;;;;;;4.78;2.50;;;10.90;64.50;;;;;;6158521;23;20025;-77
2022/01/13 06:45:59;;;;;;;4.45;2.40;;;10.90;64.50;;;;;;6157375;23;20018;-76
2022/01/13 06:48:25;;;;;;;6.85;2.72;;;10.90;64.50;;;;;;6158896;23;20021;-74
2022/01/13 06:50:51;;;;;;;4.43;2.38;;;10.90;64.50;;;;;;6158488;23;20028;-76
2022/01/13 06:53:20;;;;;;;4.25;2.70;;;10.90;64.50;;;;;;6157176;23;20021;-75
2022/01/13 06:55:45;;;;;;;4.03;2.72;;;10.90;64.50;;;;;;6158040;23;20368;-76
2022/01/13 06:58:11;;;;;;;5.45;2.80;;;10.90;64.50;;;;;;6157445;23;20028;-76
2022/01/13 07:00:37;;;;;;;4.10;2.53;;;10.90;64.50;;;;;;6158457;23;20029;-75
2022/01/13 07:03:04;;;;;;;3.42;2.42;;;10.90;64.60;;;;;;6159195;23;20017;-76
2022/01/13 07:05:30;;;;;;;6.25;2.60;;;10.90;64.60;;;;;;6159042;23;20080;-77
2022/01/13 07:07:55;;;;;;;6.15;2.97;;;10.90;64.60;;;;;;6158931;23;20025;-76
2022/01/13 07:10:21;;;;;;;5.00;2.90;;;10.90;64.60;;;;;;6157529;23;20415;-75
2022/01/13 07:12:47;;;;;;;5.50;2.83;;;10.90;64.50;;;;;;6158779;23;20045;-77
2022/01/13 07:15:13;;;;;;;7.63;3.08;;;10.90;64.60;;;;;;6158493;23;20453;-77
2022/01/13 07:17:39;;;;;;;4.95;2.83;;;10.90;64.60;;;;;;6158619;23;20061;-75
2022/01/13 07:20:06;;;;;;;6.05;2.83;;;10.90;64.60;;;;;;6158264;23;20017;-77
2022/01/13 07:22:32;;;;;;;3.90;2.60;;;10.90;64.60;;;;;;6158552;23;20168;-75
2022/01/13 07:24:58;;;;;;;5.88;3.13;;;10.90;64.60;;;;;;6158466;23;20053;-76
2022/01/13 07:27:23;;;;;;;5.10;2.80;;;10.90;64.60;;;;;;6158694;23;20018;-77
2022/01/13 07:29:49;;;;;;;6.47;2.65;;;10.90;64.60;;;;;;6159526;23;20017;-76
2022/01/13 07:32:15;;;;;;;5.97;3.05;;;10.90;64.70;;;;;;6157533;23;20017;-75
2022/01/13 07:34:41;;;;;;;6.15;2.90;;;10.90;64.60;;;;;;6158600;23;20029;-77
2022/01/13 07:37:07;;;;;;;7.43;3.33;;;10.90;64.60;;;;;;6158487;23;20355;-77
2022/01/13 07:39:35;;;;;;;5.75;2.67;;;10.90;64.70;;;;;;6157465;23;20332;-75
2022/01/13 07:42:05;;;;;;;4.70;2.97;;;10.90;64.70;;;;;;6158011;23;20032;-77
2022/01/13 07:44:30;;;;;;;7.13;3.10;;;10.90;64.70;;;;;;6157068;23;20444;-75
2022/01/13 07:46:58;;;;;;;5.50;2.88;;;10.90;64.70;;;;;;6157228;23;20028;-77
2022/01/13 07:49:35;;;;;;;8.77;3.80;;;10.90;64.70;;;;;;6132300;23;20056;-77
2022/01/13 07:52:02;;;;;;;6.47;3.03;;;10.90;64.70;;;;;;6158264;23;20044;-77
2022/01/13 07:54:30;;;;;;;6.80;3.30;;;10.90;64.70;;;;;;6158141;23;20025;-75
2022/01/13 07:56:56;;;;;;;7.30;2.83;;;10.90;64.70;;;;;;6158178;23;20025;-75
2022/01/13 07:59:27;;;;;;;5.65;2.85;;;10.90;64.70;;;;;;6158060;23;20017;-75
2022/01/13 08:01:57;;;;;;;8.38;2.88;;;10.90;64.80;;;;;;6132151;23;20014;-75
2022/01/13 08:04:23;;;;;;;6.72;3.55;;;10.90;64.80;;;;;;6157385;23;20017;-76
2022/01/13 08:06:49;;;;;;;9.52;3.42;;;10.90;64.80;;;;;;6158075;23;20067;-75
2022/01/13 08:09:15;;;;;;;6.47;2.58;;;10.90;64.80;;;;;;6157011;23;20320;-75
2022/01/13 08:11:41;;;;;;;6.15;3.45;;;10.90;64.80;;;;;;6157596;23;20021;-76
2022/01/13 08:14:07;;;;;;;5.38;3.40;;;10.90;64.80;;;;;;6157746;23;20017;-76
2022/01/13 08:16:35;;;;;;;6.57;2.90;;;10.90;64.80;;;;;;6157005;23;20028;-75
2022/01/13 08:21:46;;;;;;;4.80;2.83;;;10.90;64.90;;;;;;6157821;23;20026;-77
2022/01/13 08:24:12;;;;;;;6.53;3.25;;;10.90;64.90;;;;;;6158916;23;20014;-75
2022/01/13 08:26:37;;;;;;;6.50;3.10;;;10.90;64.90;;;;;;6158767;23;20021;-76
2022/01/13 08:29:04;;;;;;;6.95;3.47;;;10.90;64.90;;;;;;6158212;23;20022;-75
2022/01/13 08:31:30;;;;;;;7.18;3.03;;;10.90;64.90;;;;;;6157610;23;20092;-76
2022/01/13 08:33:56;;;;;;;8.80;4.35;;;10.90;64.90;;;;;;6157011;23;20013;-75
2022/01/13 08:36:22;;;;;;;6.85;3.50;;;10.90;64.90;;;;;;6157982;23;20076;-76
2022/01/13 08:38:49;;;;;;;5.93;2.88;;;10.90;64.90;;;;;;6158508;23;20292;-75
2022/01/13 08:41:15;;;;;;;7.13;3.75;;;10.90;64.90;;;;;;6156982;23;20025;-75
2022/01/13 08:43:41;;;;;;;6.43;3.45;;;10.90;64.90;;;;;;6156349;23;20029;-76
2022/01/13 08:46:07;;;;;;;10.88;3.78;;;10.90;64.90;;;;;;6156883;23;20044;-75
2022/01/13 08:48:34;;;;;;;10.98;3.60;;;10.90;64.90;;;;;;6156488;23;20300;-76
2022/01/13 08:51:00;;;;;;;7.47;3.92;;;10.90;64.90;;;;;;6156349;23;20017;-75
2022/01/13 08:53:26;;;;;;;6.30;3.53;;;10.90;64.90;;;;;;6157828;23;20068;-76
2022/01/13 08:55:54;;;;;;;8.18;4.45;;;10.90;64.90;;;;;;6157217;23;20021;-75
2022/01/13 08:58:23;;;;;;;5.78;3.60;;;10.90;64.90;;;;;;6132570;23;20018;-76
2022/01/13 09:00:51;;;;;;;7.50;3.75;;;10.90;64.90;;;;;;6158587;23;20308;-77
2022/01/13 09:03:17;;;;;;;7.93;3.63;;;10.90;64.90;;;;;;6157821;23;20408;-75
2022/01/13 09:05:44;;;;;;;6.93;4.40;;;10.90;65.00;;;;;;6158758;23;20018;-75
2022/01/13 09:08:11;;;;;;;6.32;3.58;;;10.90;65.00;;;;;;6157804;23;20017;-76
2022/01/13 09:10:42;;;;;;;6.68;4.22;;;10.90;65.00;;;;;;6156825;23;20097;-76
2022/01/13 09:13:12;;;;;;;6.47;3.45;;;10.90;65.00;;;;;;6156686;23;20097;-77
2022/01/13 09:15:44;;;;;;;9.80;3.88;;;10.90;65.00;;;;;;6157457;23;20021;-76
2022/01/13 09:18:14;;;;;;;8.00;3.72;;;10.90;65.10;;;;;;6157598;23;20426;-77
2022/01/13 09:20:41;;;;;;;8.55;4.00;;;10.90;65.10;;;;;;6156153;23;20021;-76
2022/01/13 09:23:07;;;;;;;7.07;3.67;;;10.90;65.10;;;;;;6157262;23;20363;-75
2022/01/13 09:25:34;;;;;;;7.63;3.45;;;10.90;65.10;;;;;;6158640;23;20021;-77
2022/01/13 09:28:02;;;;;;;8.50;4.00;;;10.90;65.10;;;;;;6158141;23;20085;-77
2022/01/13 09:30:28;;;;;;;7.30;3.80;;;10.90;65.20;;;;;;6159627;23;20021;-75
2022/01/13 09:32:54;;;;;;;8.70;3.58;;;10.90;65.10;;;;;;6159014;23;20038;-76
2022/01/13 09:35:19;;;;;;;8.75;4.10;;;10.90;65.20;;;;;;6157936;23;20017;-76
2022/01/13 09:37:45;;;;;;;9.88;4.03;;;10.90;65.20;;;;;;6159893;23;20021;-75
2022/01/13 09:40:12;;;;;;;9.18;4.18;;;10.90;65.20;;;;;;6159286;23;20025;-76
2022/01/13 09:42:40;;;;;;;10.60;3.67;;;10.90;65.20;;;;;;6159766;23;20040;-74
2022/01/13 09:45:08;;;;;;;7.43;3.50;;;10.90;65.20;;;;;;6158744;23;20400;-76
2022/01/13 09:47:37;;;;;;;5.93;3.75;;;10.90;65.20;;;;;;6134020;23;20021;-75
2022/01/13 09:50:09;;;;;;;12.38;4.55;;;10.90;65.20;;;;;;6159947;23;20017;-77
2022/01/13 09:52:35;;;;;;;8.38;3.65;;;10.90;65.20;;;;;;6159452;23;20032;-77
2022/01/13 09:55:07;;;;;;;8.10;3.65;;;10.90;65.20;;;;;;6159020;23;20447;-77
2022/01/13 09:57:33;;;;;;;8.85;3.65;;;10.90;65.20;;;;;;6159332;23;20057;-75
2022/01/13 10:00:00;;;;;;;7.70;3.72;;;10.90;65.30;;;;;;6159617;23;20316;-76
2022/01/13 10:02:26;;;;;;;9.85;4.72;;;10.90;65.30;;;;;;6160040;23;20021;-76
2022/01/13 10:04:54;;;;;;;7.97;3.53;;;11.00;65.30;;;;;;6158614;23;20311;-74
2022/01/13 10:07:38;;;;;;;9.50;4.80;;;11.00;65.30;;;;;;6158526;23;20131;-75
2022/01/13 10:10:07;;;;;;;9.07;4.32;;;10.90;65.30;;;;;;6157940;23;20017;-76
2022/01/13 10:12:38;;;;;;;8.48;4.32;;;10.90;65.30;;;;;;6159084;23;20085;-78
2022/01/13 10:17:57;;;;;;;9.77;4.53;;;11.00;65.40;;;;;;6157531;23;20021;-76
2022/01/13 10:20:23;;;;;;;8.02;4.63;;;10.90;66.00;;;;;;6158939;23;20021;-77
2022/01/13 10:22:50;;;;;;;10.40;4.97;;;11.00;65.50;;;;;;6158985;23;20097;-76
2022/01/13 10:25:27;;;;;;;9.55;4.25;;;10.90;65.50;;;;;;6157629;23;20087;-75
2022/01/13 10:27:53;;;;;;;10.65;4.97;;;11.00;65.60;;;;;;6158990;23;20419;-76
2022/01/13 10:30:22;;;;;;;11.00;4.88;;;11.00;65.60;;;;;;6133679;23;20109;-77
2022/01/13 10:32:48;;;;;;;11.70;5.18;;;11.00;65.60;;;;;;6157395;23;20014;-77
2022/01/13 10:35:16;;;;;;;10.75;4.80;;;11.00;65.70;;;;;;6157745;23;20084;-76
2022/01/13 10:37:44;;;;;;;8.73;5.00;;;11.00;65.70;;;;;;6158731;23;20032;-75
2022/01/13 10:40:13;;;;;;;8.63;5.18;;;11.00;65.70;;;;;;6158007;23;20021;-76
2022/01/13 10:45:22;;;;;;;10.40;4.78;;;11.00;65.70;;;;;;6158853;23;20018;-76
2022/01/13 10:47:57;;;;;;;9.70;4.88;;;11.00;65.70;;;;;;6157359;23;20049;-77
2022/01/13 10:50:31;;;;;;;10.75;5.32;;;11.00;65.70;;;;;;6157527;23;20419;-77
2022/01/13 10:53:03;;;;;;;9.90;4.97;;;11.00;65.70;;;;;;6157294;23;20017;-78
2022/01/13 10:55:30;;;;;;;11.40;5.25;;;11.00;65.80;;;;;;6133202;23;20021;-77
2022/01/13 10:57:57;;;;;;;9.13;5.45;;;10.90;65.70;;;;;;6133095;23;20025;-77
2022/01/13 11:00:26;;;;;;;14.57;5.50;;;11.00;65.80;;;;;;6157939;23;20033;-77
2022/01/13 11:03:12;;;;;;;11.88;5.78;;;11.00;65.80;;;;;;6158707;23;20367;-77
2022/01/13 11:05:47;;;;;;;9.13;5.22;;;11.00;65.90;;;;;;6157160;23;20018;-76
2022/01/13 11:08:22;;;;;;;9.93;5.57;;;11.00;65.90;;;;;;6157257;23;20017;-77
2022/01/13 11:10:52;;;;;;;8.65;4.78;;;11.00;65.90;;;;;;6156959;23;20491;-75
2022/01/13 11:13:19;;;;;;;10.73;5.13;;;11.00;65.90;;;;;;6158560;23;20017;-75
2022/01/13 11:15:50;;;;;;;8.48;5.55;;;11.00;65.90;;;;;;6158642;23;20021;-77
2022/01/13 11:18:19;;;;;;;10.05;5.07;;;11.00;66.00;;;;;;6157545;23;20021;-73
2022/01/13 11:20:49;;;;;;;8.27;4.85;;;11.00;66.00;;;;;;6159195;23;20021;-76
2022/01/13 11:23:17;;;;;;;10.32;5.00;;;11.00;66.00;;;;;;6158371;23;20013;-74
2022/01/13 11:25:45;;;;;;;10.25;5.18;;;11.00;66.00;;;;;;6158118;23;20470;-75
2022/01/13 11:28:11;;;;;;;11.57;5.25;;;11.00;66.00;;;;;;6157543;23;20080;-75
2022/01/13 11:30:38;;;;;;;9.18;5.38;;;11.00;66.00;;;;;;6157785;23;20021;-76
2022/01/13 11:33:03;;;;;;;8.93;4.78;;;11.00;66.10;;;;;;6158164;23;20021;-76
2022/01/13 11:35:34;;;;;;;11.43;4.85;;;11.00;66.00;;;;;;6157182;23;20013;-76
2022/01/13 11:38:04;;;;;;;12.02;5.63;;;11.00;66.10;;;;;;6158702;23;20017;-76
2022/01/13 11:40:34;;;;;;;11.57;4.97;;;11.00;66.00;;;;;;6157207;23;20022;-74
2022/01/13 11:43:02;;;;;;;8.55;5.22;;;11.00;66.00;;;;;;6157680;23;20021;-74
2022/01/13 11:45:29;;;;;;;9.98;5.10;;;11.00;66.10;;;;;;6156816;23;20049;-76
2022/01/13 11:48:25;;;;;;;10.13;4.80;;;11.00;66.10;;;;;;6157821;23;20041;-75
2022/01/13 11:51:13;;;;;;;9.00;5.30;;;11.00;66.10;;;;;;6156845;23;20088;-76
2022/01/13 11:53:51;;;;;;;8.25;4.65;;;11.00;66.10;;;;;;6158224;23;20361;-76
2022/01/13 11:56:17;;;;;;;10.30;5.35;;;11.00;66.20;;;;;;6157411;23;20036;-76
2022/01/13 11:58:45;;;;;;;8.07;4.65;;;11.00;66.20;;;;;;6156456;23;20025;-76
2022/01/13 12:01:21;;;;;;;9.63;5.10;;;11.00;66.20;;;;;;6157326;23;20025;-76
2022/01/13 12:03:50;;;;;;;10.10;4.57;;;11.00;66.30;;;;;;6157632;23;20021;-75
2022/01/13 12:06:37;;;;;;;6.10;4.22;;;11.00;66.30;;;;;;6156690;23;20013;-74
2022/01/13 12:09:23;;;;;;;6.85;4.22;;;11.00;66.30;;;;;;6156916;23;20437;-74
2022/01/13 12:11:55;;;;;;;9.70;4.55;;;11.00;66.30;;;;;;6136661;23;20033;-75
2022/01/13 12:14:27;;;;;;;10.65;4.90;;;11.00;66.40;;;;;;6158024;23;20025;-75
2022/01/13 12:17:03;;;;;;;8.80;4.25;;;11.00;66.40;;;;;;6157236;23;20017;-75
2022/01/13 12:19:46;;;;;;;7.88;4.45;;;11.00;66.40;;;;;;6156900;23;20507;-75
2022/01/13 12:22:33;;;;;;;11.40;4.50;;;11.00;66.40;;;;;;6157563;23;20021;-76
2022/01/13 12:25:01;;;;;;;11.35;5.18;;;11.00;66.40;;;;;;6157299;23;20261;-75
2022/01/13 12:27:39;;;;;;;8.15;4.20;;;11.10;66.50;;;;;;6157841;23;20088;-75
2022/01/13 12:30:27;;;;;;;9.13;5.05;;;11.00;66.50;;;;;;6157954;23;20277;-76
2022/01/13 12:32:58;;;;;;;9.68;5.10;;;11.00;66.50;;;;;;6157303;23;20296;-74
2022/01/13 12:35:33;;;;;;;10.02;4.78;;;11.00;66.50;;;;;;6156857;23;20423;-75
2022/01/13 12:38:00;;;;;;;9.73;4.38;;;11.00;66.60;;;;;;6156887;23;20018;-76
2022/01/13 12:40:30;;;;;;;9.52;4.75;;;11.00;66.50;;;;;;6157877;23;20027;-76
2022/01/13 12:42:55;;;;;;;7.78;4.10;;;11.00;66.60;;;;;;6157050;23;20068;-75
2022/01/13 12:45:28;;;;;;;9.60;4.20;;;11.00;66.60;;;;;;6157049;23;20022;-75
2022/01/13 12:48:14;;;;;;;11.25;4.72;;;11.00;66.60;;;;;;6157712;23;20017;-75
2022/01/13 12:50:43;;;;;;;8.02;4.57;;;11.00;66.60;;;;;;6102686;23;20033;-76
2022/01/13 12:53:13;;;;;;;7.10;3.88;;;11.00;66.70;;;;;;6128298;23;20022;-75
2022/01/13 12:55:42;;;;;;;7.50;3.90;;;11.00;66.70;;;;;;6128730;23;20029;-76
2022/01/13 12:58:08;;;;;;;6.22;3.45;;;11.10;66.80;;;;;;6102933;23;20018;-76
2022/01/13 13:00:34;;;;;;;8.15;4.05;;;11.00;66.80;;;;;;6130011;23;20017;-76
2022/01/13 13:03:06;;;;;;;11.63;4.00;;;11.10;66.90;;;;;;6104511;23;20313;-76
2022/01/13 13:05:38;;;;;;;6.88;3.60;;;11.00;66.80;;;;;;6104779;23;20384;-76
2022/01/13 13:08:06;;;;;;;10.18;4.05;;;11.10;66.90;;;;;;6130218;23;20018;-76
2022/01/13 13:10:33;;;;;;;7.53;3.60;;;11.00;66.80;;;;;;6105701;23;20032;-76
2022/01/13 13:13:01;;;;;;;11.18;4.25;;;11.10;66.90;;;;;;6080421;23;20018;-76
2022/01/13 13:17:54;;;;;;;8.55;3.53;;;11.10;66.90;;;;;;6104620;23;20022;-77